Sign in

Advertise on goboko.com

You can reach many thousands of active pilots each month by advertising on goboko.com.

Please contact us for details.

Advertising

Info

Aviation weather - KDAA

METAR KDAA 030238Z AUTO 00000KT 9SM SCT080 SCT150 BKN180 24/24 A2990 RMK AO2 LTG DSNT SW

TAF TAF KDAA 0209/0315 24006KT 3200 BR SCT040 SCT110 QNH2993INS BECMG 0214/0215 28012KT 9999 NSW SCT040 QNH2993INS BECMG 0218/0219 28010G15KT 8000 -SHRA BKN040 QNH2993INS TEMPO 0220/0224 30020G35KT 4800 -TSRA OVC040CB BECMG 0303/0304 VRB06KT 9999 NSW SCT060 QNH2999INS TX34/0220Z TN22/0210Z

ADDS Experimental. Do not use for flight-related decisions.

Javascript required. Ce site nécessite javascript